Time;durP1;ratioP1;P1;durP2;ratioP2;P2;SDS_P1;SDS_P2;PMS_P1;PMS_P2;Temp;Humidity;BMP_temperature;BMP_pressure;BME280_temperature;BME280_humidity;BME280_pressure;Samples;Min_cycle;Max_cycle;Signal;HPM_P1;HPM_P2
2020/12/14 00:00:16;;;;;;;2.72;1.60;;;9.20;80.50;;;;;;4995150;28;20034;-77
2020/12/14 00:02:42;;;;;;;1.83;1.60;;;9.20;80.60;;;;;;4979407;28;20125;-77
2020/12/14 00:05:09;;;;;;;1.50;1.40;;;9.20;80.60;;;;;;4995145;28;20084;-77
2020/12/14 00:07:36;;;;;;;2.17;1.48;;;9.20;80.60;;;;;;4995439;28;20060;-77
2020/12/14 00:10:03;;;;;;;2.75;1.70;;;9.20;80.60;;;;;;4979303;28;20042;-79
2020/12/14 00:12:29;;;;;;;2.15;1.50;;;9.20;80.60;;;;;;4994261;28;20042;-77
2020/12/14 00:14:55;;;;;;;1.55;1.30;;;9.20;80.60;;;;;;4978730;28;20444;-77
2020/12/14 00:17:21;;;;;;;4.03;1.58;;;9.20;80.50;;;;;;4994659;28;20493;-78
2020/12/14 00:19:48;;;;;;;1.88;1.40;;;9.20;80.50;;;;;;5010812;28;20034;-77
2020/12/14 00:22:13;;;;;;;2.35;1.35;;;9.20;80.60;;;;;;4995182;28;20038;-77
2020/12/14 00:24:39;;;;;;;2.00;1.58;;;9.20;80.50;;;;;;4995978;28;20050;-77
2020/12/14 00:27:05;;;;;;;1.92;1.40;;;9.20;80.60;;;;;;4994154;28;20033;-80
2020/12/14 00:29:31;;;;;;;1.85;1.42;;;9.20;80.60;;;;;;4994303;28;20113;-77
2020/12/14 00:31:57;;;;;;;1.55;1.30;;;9.20;80.60;;;;;;4995027;28;20470;-77
2020/12/14 00:34:24;;;;;;;2.30;1.55;;;9.20;80.60;;;;;;4993554;28;20034;-76
2020/12/14 00:36:50;;;;;;;5.03;1.90;;;9.20;80.60;;;;;;4994413;28;20027;-77
2020/12/14 00:39:16;;;;;;;2.67;1.50;;;9.20;80.60;;;;;;4977571;28;20030;-78
2020/12/14 00:41:42;;;;;;;2.22;1.45;;;9.20;80.50;;;;;;4977882;28;20065;-77
2020/12/14 00:44:08;;;;;;;1.55;1.40;;;9.20;80.50;;;;;;4993575;28;20062;-82
2020/12/14 00:46:33;;;;;;;2.50;1.45;;;9.20;80.60;;;;;;4994394;28;20058;-77
2020/12/14 00:48:59;;;;;;;2.75;1.40;;;9.10;80.50;;;;;;4994987;28;20027;-78
2020/12/14 00:51:26;;;;;;;3.28;1.73;;;9.20;80.50;;;;;;4994439;28;20046;-77
2020/12/14 00:53:52;;;;;;;2.22;1.48;;;9.20;80.60;;;;;;4994527;28;20033;-76
2020/12/14 00:56:18;;;;;;;3.92;1.70;;;9.20;81.20;;;;;;4994490;28;20395;-77
2020/12/14 00:58:43;;;;;;;2.90;1.42;;;9.20;80.60;;;;;;4994684;28;20023;-77
2020/12/14 01:01:11;;;;;;;1.98;1.38;;;9.10;80.50;;;;;;4994861;28;20050;-84
2020/12/14 01:03:36;;;;;;;1.52;1.30;;;9.20;80.60;;;;;;5010533;28;20035;-78
2020/12/14 01:06:02;;;;;;;1.77;1.33;;;9.20;80.50;;;;;;4977515;28;20041;-77
2020/12/14 01:08:28;;;;;;;1.60;1.35;;;9.20;80.60;;;;;;4980416;28;20058;-77
2020/12/14 01:10:54;;;;;;;3.15;1.80;;;9.20;80.60;;;;;;4991322;28;20027;-77
2020/12/14 01:13:19;;;;;;;3.15;1.80;;;9.20;80.50;;;;;;4993771;28;20022;-77
2020/12/14 01:15:46;;;;;;;2.05;1.50;;;9.20;80.60;;;;;;4994322;28;20030;-78
2020/12/14 01:18:12;;;;;;;2.15;1.40;;;9.20;80.60;;;;;;4977675;28;20726;-77
2020/12/14 01:20:42;;;;;;;2.22;1.50;;;9.20;80.50;;;;;;4994021;28;20038;-77
2020/12/14 01:23:08;;;;;;;2.45;1.30;;;9.20;80.60;;;;;;4977557;28;20046;-77
2020/12/14 01:25:35;;;;;;;2.78;1.50;;;9.20;80.50;;;;;;4993569;28;20054;-77
2020/12/14 01:28:01;;;;;;;1.90;1.52;;;9.20;80.60;;;;;;4993970;28;20062;-77
2020/12/14 01:30:27;;;;;;;2.30;1.30;;;9.20;80.60;;;;;;4993602;28;20108;-77
2020/12/14 01:32:53;;;;;;;1.58;1.20;;;9.10;80.50;;;;;;4985133;28;20042;-77
2020/12/14 01:35:19;;;;;;;2.70;1.40;;;9.10;80.50;;;;;;4990296;28;20054;-77
2020/12/14 01:37:45;;;;;;;2.45;1.20;;;9.20;80.60;;;;;;4993845;28;20079;-77
2020/12/14 01:40:12;;;;;;;2.10;1.23;;;9.20;80.50;;;;;;4995029;28;20033;-77
2020/12/14 01:42:44;;;;;;;3.20;1.40;;;9.20;80.60;;;;;;4992670;28;20133;-81
2020/12/14 01:45:10;;;;;;;2.42;1.40;;;9.20;80.60;;;;;;4977410;28;20470;-76
2020/12/14 01:47:38;;;;;;;2.13;1.60;;;9.20;80.50;;;;;;4993526;28;20566;-77
2020/12/14 01:50:05;;;;;;;1.70;1.30;;;9.20;80.50;;;;;;4993637;28;20038;-77
2020/12/14 01:52:31;;;;;;;1.95;1.30;;;9.20;80.60;;;;;;4961099;28;20377;-77
2020/12/14 01:55:00;;;;;;;2.38;1.50;;;9.20;80.50;;;;;;5004456;28;20456;-77
2020/12/14 01:57:26;;;;;;;1.42;1.33;;;9.20;80.60;;;;;;5008037;28;20029;-77
2020/12/14 01:59:56;;;;;;;2.47;1.33;;;9.20;80.50;;;;;;4993257;28;20034;-77
2020/12/14 02:02:21;;;;;;;2.05;1.20;;;9.20;80.60;;;;;;4992708;28;20037;-77
2020/12/14 02:04:47;;;;;;;2.17;1.30;;;9.20;80.50;;;;;;4992169;28;20030;-77
2020/12/14 02:07:13;;;;;;;2.45;1.40;;;9.20;80.50;;;;;;4976949;28;20053;-80
2020/12/14 02:09:39;;;;;;;2.00;1.30;;;9.20;80.50;;;;;;4977065;28;20030;-77
2020/12/14 02:12:05;;;;;;;2.58;1.50;;;9.20;80.50;;;;;;4977212;28;20042;-77
2020/12/14 02:14:31;;;;;;;1.52;1.20;;;9.20;80.50;;;;;;4993937;28;20054;-77
2020/12/14 02:16:56;;;;;;;1.85;1.30;;;9.20;80.60;;;;;;4993305;28;20088;-77
2020/12/14 02:19:22;;;;;;;2.08;1.30;;;9.20;80.50;;;;;;4992787;28;20430;-77
2020/12/14 02:21:51;;;;;;;2.20;1.40;;;9.20;80.50;;;;;;4993287;28;20046;-77
2020/12/14 02:24:18;;;;;;;1.85;1.30;;;9.20;80.50;;;;;;4960000;28;20050;-78
2020/12/14 02:26:48;;;;;;;1.63;1.30;;;9.20;80.50;;;;;;4991274;28;20069;-78
2020/12/14 02:29:20;;;;;;;2.25;1.25;;;9.20;80.50;;;;;;4977418;28;20030;-77
2020/12/14 02:31:46;;;;;;;1.70;1.27;;;9.20;80.50;;;;;;4976597;28;20049;-77
2020/12/14 02:34:12;;;;;;;1.42;1.20;;;9.20;80.50;;;;;;4993588;28;20117;-78
2020/12/14 02:36:40;;;;;;;1.85;1.23;;;9.20;80.50;;;;;;4984050;28;20100;-77
2020/12/14 02:39:06;;;;;;;2.05;1.40;;;9.20;80.50;;;;;;4976529;28;20035;-77
2020/12/14 02:41:32;;;;;;;1.73;1.48;;;9.20;80.50;;;;;;4992283;28;20046;-77
2020/12/14 02:43:58;;;;;;;1.42;1.20;;;9.20;80.50;;;;;;4976348;28;20030;-77
2020/12/14 02:46:24;;;;;;;2.03;1.40;;;9.20;80.50;;;;;;4992381;28;20030;-77
2020/12/14 02:48:49;;;;;;;2.88;1.40;;;9.20;80.50;;;;;;4992428;28;20463;-77
2020/12/14 02:51:19;;;;;;;1.58;1.40;;;9.30;80.50;;;;;;4960544;28;20105;-77
2020/12/14 02:53:47;;;;;;;1.88;1.20;;;9.20;80.50;;;;;;4992488;28;20463;-77
2020/12/14 02:56:13;;;;;;;2.05;1.30;;;9.30;80.50;;;;;;4992437;28;20033;-77
2020/12/14 02:58:39;;;;;;;1.33;1.10;;;9.30;80.50;;;;;;4992870;28;20030;-77
2020/12/14 03:01:04;;;;;;;1.40;1.30;;;9.30;80.50;;;;;;4992863;28;20360;-77
2020/12/14 03:03:30;;;;;;;2.28;1.27;;;9.30;80.50;;;;;;4990431;28;20040;-77
2020/12/14 03:05:56;;;;;;;1.35;1.25;;;9.30;80.50;;;;;;4992235;28;20027;-77
2020/12/14 03:08:22;;;;;;;2.03;1.20;;;9.30;80.50;;;;;;4991418;28;20503;-77
2020/12/14 03:10:47;;;;;;;2.35;1.30;;;9.30;80.50;;;;;;4991368;28;20562;-77
2020/12/14 03:13:13;;;;;;;1.92;1.45;;;9.30;80.50;;;;;;4991340;28;20034;-77
2020/12/14 03:15:39;;;;;;;1.23;1.13;;;9.30;80.50;;;;;;4975427;28;20061;-77
2020/12/14 03:18:06;;;;;;;1.45;1.10;;;9.30;80.60;;;;;;4991766;28;20054;-78
2020/12/14 03:20:33;;;;;;;2.05;1.50;;;9.30;80.50;;;;;;4975450;28;20026;-77
2020/12/14 03:22:59;;;;;;;2.60;1.30;;;9.30;80.50;;;;;;4991277;28;20061;-77
2020/12/14 03:25:24;;;;;;;3.97;1.40;;;9.30;80.50;;;;;;4990420;28;20077;-78
2020/12/14 03:27:50;;;;;;;1.92;1.40;;;9.30;80.50;;;;;;4991021;28;20030;-77
2020/12/14 03:30:16;;;;;;;1.20;1.10;;;9.30;80.50;;;;;;4991457;28;20545;-78
2020/12/14 03:32:42;;;;;;;2.28;1.33;;;9.30;80.50;;;;;;4974938;28;20039;-77
2020/12/14 03:35:07;;;;;;;1.75;1.40;;;9.30;80.60;;;;;;4958886;28;20436;-78
2020/12/14 03:37:33;;;;;;;1.75;1.25;;;9.30;80.50;;;;;;4990949;28;20030;-77
2020/12/14 03:39:59;;;;;;;1.98;1.30;;;9.40;80.60;;;;;;4991362;28;20054;-77
2020/12/14 03:42:25;;;;;;;1.95;1.20;;;9.30;80.50;;;;;;4991053;28;20038;-77
2020/12/14 03:44:50;;;;;;;2.45;1.70;;;9.30;80.50;;;;;;4991902;28;20041;-77
2020/12/14 03:47:16;;;;;;;1.55;1.27;;;9.30;80.60;;;;;;4975605;28;20027;-77
2020/12/14 03:49:42;;;;;;;1.75;1.27;;;9.30;80.50;;;;;;4975306;28;20088;-77
2020/12/14 03:52:07;;;;;;;3.20;1.40;;;9.30;80.50;;;;;;4991403;28;20034;-77
2020/12/14 03:54:33;;;;;;;1.92;1.20;;;9.40;80.60;;;;;;4974512;28;20039;-77
2020/12/14 03:56:59;;;;;;;1.30;1.20;;;9.30;80.50;;;;;;4991771;28;20038;-77
2020/12/14 03:59:24;;;;;;;1.30;1.20;;;9.30;80.50;;;;;;4975333;28;20584;-79
2020/12/14 04:01:55;;;;;;;1.45;1.23;;;9.40;80.60;;;;;;4991756;28;20517;-77
2020/12/14 04:04:21;;;;;;;2.65;1.30;;;9.40;80.60;;;;;;4975736;28;20034;-77
2020/12/14 04:06:46;;;;;;;1.20;1.10;;;9.40;80.60;;;;;;4991773;28;20034;-77
2020/12/14 04:09:12;;;;;;;1.35;1.10;;;9.30;80.50;;;;;;4991930;28;20031;-77
2020/12/14 04:11:38;;;;;;;2.13;1.42;;;9.30;80.50;;;;;;4975414;28;20042;-77
2020/12/14 04:14:03;;;;;;;1.95;1.30;;;9.40;80.60;;;;;;4959499;28;20390;-77
2020/12/14 04:16:29;;;;;;;1.92;1.30;;;9.40;80.60;;;;;;4984412;28;20039;-77
2020/12/14 04:18:55;;;;;;;1.52;1.25;;;9.40;80.60;;;;;;4988606;28;20019;-77
2020/12/14 04:21:20;;;;;;;1.35;1.25;;;9.40;80.60;;;;;;4988214;28;20570;-77
2020/12/14 04:23:46;;;;;;;1.35;1.20;;;9.40;80.60;;;;;;4987754;28;20023;-77
2020/12/14 04:26:14;;;;;;;1.30;1.20;;;9.40;80.60;;;;;;4991499;28;20041;-77
2020/12/14 04:28:40;;;;;;;1.55;1.20;;;9.40;80.60;;;;;;4977326;28;20031;-77
2020/12/14 04:31:06;;;;;;;1.40;1.30;;;9.40;80.60;;;;;;4995428;28;20030;-77
2020/12/14 04:33:32;;;;;;;1.30;1.20;;;9.40;80.60;;;;;;4978704;28;20486;-77
2020/12/14 04:35:58;;;;;;;1.40;1.17;;;9.40;80.60;;;;;;4994799;28;20034;-77
2020/12/14 04:38:24;;;;;;;1.88;1.27;;;9.40;80.60;;;;;;4994960;28;20031;-77
2020/12/14 04:40:51;;;;;;;1.58;1.20;;;9.40;80.60;;;;;;4995170;28;20035;-79
2020/12/14 04:43:17;;;;;;;1.02;1.02;;;9.40;80.60;;;;;;4995929;28;20026;-77
2020/12/14 04:45:45;;;;;;;1.30;1.20;;;9.40;80.60;;;;;;4978486;28;20026;-77
2020/12/14 04:48:12;;;;;;;1.60;1.25;;;9.40;80.60;;;;;;4975337;28;20022;-77
2020/12/14 04:50:39;;;;;;;1.55;1.17;;;9.50;80.60;;;;;;4975222;28;20035;-76
2020/12/14 04:53:05;;;;;;;1.20;1.10;;;9.40;80.60;;;;;;5001371;28;20545;-78
2020/12/14 04:55:38;;;;;;;1.40;1.20;;;9.40;80.60;;;;;;4994381;28;20054;-76
2020/12/14 04:58:05;;;;;;;1.38;1.20;;;9.40;80.60;;;;;;4994448;28;20066;-77
2020/12/14 05:00:32;;;;;;;1.42;1.25;;;9.40;80.60;;;;;;4993419;28;20030;-77
2020/12/14 05:02:58;;;;;;;1.30;1.20;;;9.40;80.60;;;;;;4994279;28;20049;-77
2020/12/14 05:05:24;;;;;;;1.27;1.17;;;9.50;80.60;;;;;;4961683;28;20121;-76
2020/12/14 05:07:50;;;;;;;1.48;1.15;;;9.40;80.60;;;;;;4977462;28;20145;-76
2020/12/14 05:10:21;;;;;;;1.48;1.20;;;9.40;80.60;;;;;;4994931;28;20033;-77
2020/12/14 05:12:46;;;;;;;1.45;1.23;;;9.40;80.60;;;;;;4994768;28;20030;-77
2020/12/14 05:15:26;;;;;;;1.42;1.20;;;9.50;80.60;;;;;;4977755;28;20035;-76
2020/12/14 05:18:07;;;;;;;2.08;1.30;;;9.40;80.60;;;;;;5009833;28;20038;-74
2020/12/14 05:20:32;;;;;;;1.30;1.20;;;9.50;80.60;;;;;;4994795;28;20026;-74
2020/12/14 05:23:09;;;;;;;2.28;1.48;;;9.40;80.50;;;;;;4993774;28;20047;-74
2020/12/14 05:25:36;;;;;;;1.58;1.25;;;9.50;80.70;;;;;;4994019;28;20046;-77
2020/12/14 05:28:14;;;;;;;1.27;1.17;;;9.50;80.60;;;;;;4961441;28;20042;-75
2020/12/14 05:30:50;;;;;;;1.38;1.27;;;9.50;80.70;;;;;;4992557;28;20045;-76
2020/12/14 05:33:24;;;;;;;1.25;1.13;;;9.40;80.60;;;;;;4977098;28;20073;-76
2020/12/14 05:35:50;;;;;;;1.35;1.25;;;9.50;80.60;;;;;;4977729;28;20038;-77
2020/12/14 05:38:23;;;;;;;1.48;1.15;;;9.50;80.60;;;;;;4977261;28;20489;-75
2020/12/14 05:41:00;;;;;;;1.50;1.20;;;9.50;80.70;;;;;;4992273;28;20080;-76
2020/12/14 05:43:29;;;;;;;1.42;1.20;;;9.50;80.70;;;;;;5009783;28;20066;-78
2020/12/14 05:45:55;;;;;;;1.70;1.45;;;9.50;80.60;;;;;;5009436;28;20026;-77
2020/12/14 05:48:28;;;;;;;1.40;1.30;;;9.50;80.60;;;;;;4992020;28;20030;-76
2020/12/14 05:51:03;;;;;;;2.20;1.35;;;9.50;80.70;;;;;;5008894;28;20384;-77
2020/12/14 05:53:41;;;;;;;1.65;1.42;;;9.50;80.60;;;;;;5010204;28;20030;-75
2020/12/14 05:56:09;;;;;;;1.70;1.33;;;9.50;80.60;;;;;;4997710;28;20014;-76
2020/12/14 05:58:39;;;;;;;1.45;1.30;;;9.50;80.60;;;;;;4992217;28;20422;-77
2020/12/14 06:01:08;;;;;;;2.67;1.23;;;9.50;80.70;;;;;;4993433;28;20034;-75
2020/12/14 06:03:37;;;;;;;2.58;1.60;;;9.50;80.70;;;;;;4993747;28;20039;-76
2020/12/14 06:06:13;;;;;;;1.45;1.20;;;9.50;81.30;;;;;;4992745;28;20026;-75
2020/12/14 06:08:45;;;;;;;1.88;1.38;;;9.50;80.70;;;;;;4991525;28;20640;-76
2020/12/14 06:11:15;;;;;;;1.65;1.35;;;9.50;80.70;;;;;;4992358;28;20085;-76
2020/12/14 06:13:49;;;;;;;1.60;1.40;;;9.50;80.70;;;;;;4992649;28;20625;-75
2020/12/14 06:16:22;;;;;;;1.20;1.10;;;9.50;80.70;;;;;;4976830;28;20080;-77
2020/12/14 06:18:48;;;;;;;1.80;1.30;;;9.60;80.70;;;;;;4992499;28;20058;-76
2020/12/14 06:21:39;;;;;;;1.88;1.25;;;9.60;80.70;;;;;;4976210;28;20495;-76
2020/12/14 06:24:13;;;;;;;1.33;1.17;;;9.50;80.70;;;;;;5005768;28;20049;-76
2020/12/14 06:26:43;;;;;;;2.08;1.50;;;9.60;80.70;;;;;;4990571;28;20043;-75
2020/12/14 06:29:09;;;;;;;2.08;1.40;;;9.50;81.30;;;;;;4990817;28;20065;-76
2020/12/14 06:31:37;;;;;;;1.40;1.20;;;9.50;80.60;;;;;;4993263;28;20466;-81
2020/12/14 06:34:05;;;;;;;2.00;1.30;;;9.50;80.70;;;;;;4988974;28;20072;-77
2020/12/14 06:36:41;;;;;;;1.77;1.40;;;9.50;80.60;;;;;;5004143;28;20037;-76
2020/12/14 06:39:25;;;;;;;1.30;1.20;;;9.50;80.70;;;;;;4992985;28;20039;-76
2020/12/14 06:41:52;;;;;;;1.20;1.10;;;9.50;80.70;;;;;;4993761;28;20041;-76
2020/12/14 06:44:18;;;;;;;1.52;1.33;;;9.60;80.70;;;;;;4994434;28;20166;-77
2020/12/14 06:46:45;;;;;;;1.98;1.35;;;9.60;80.70;;;;;;4960338;28;20070;-76
2020/12/14 06:49:10;;;;;;;1.92;1.42;;;9.60;80.70;;;;;;4993305;28;20459;-76
2020/12/14 06:51:49;;;;;;;1.20;1.10;;;9.60;80.70;;;;;;5008162;28;20046;-78
2020/12/14 06:54:41;;;;;;;1.40;1.30;;;9.60;80.70;;;;;;4999211;28;20030;-76
2020/12/14 06:57:09;;;;;;;1.80;1.30;;;9.60;80.70;;;;;;4991802;28;20030;-76
2020/12/14 06:59:36;;;;;;;1.42;1.10;;;9.60;80.70;;;;;;4992069;28;20030;-76
2020/12/14 07:02:04;;;;;;;1.52;1.40;;;9.60;80.70;;;;;;4992885;28;20057;-76
2020/12/14 07:04:29;;;;;;;1.30;1.20;;;9.60;80.70;;;;;;4993057;28;20030;-75
2020/12/14 07:06:56;;;;;;;1.50;1.30;;;9.60;80.70;;;;;;4991232;28;20037;-77
2020/12/14 07:09:48;;;;;;;2.10;1.20;;;9.60;80.70;;;;;;4992024;28;20109;-76
2020/12/14 07:12:13;;;;;;;1.27;1.17;;;9.60;80.80;;;;;;4988962;28;20046;-76
2020/12/14 07:14:50;;;;;;;1.30;1.20;;;9.60;80.70;;;;;;4975532;28;20037;-77
2020/12/14 07:17:24;;;;;;;1.25;1.13;;;9.60;80.70;;;;;;4993362;28;20093;-75
2020/12/14 07:19:55;;;;;;;1.27;1.17;;;9.60;80.70;;;;;;4991942;28;20113;-76
2020/12/14 07:22:23;;;;;;;1.40;1.20;;;9.60;80.70;;;;;;4991600;28;20117;-77
2020/12/14 07:25:00;;;;;;;1.30;1.20;;;9.60;80.70;;;;;;4975585;28;20073;-76
2020/12/14 07:27:27;;;;;;;1.77;1.30;;;9.60;81.30;;;;;;4992058;28;20026;-76
2020/12/14 07:30:13;;;;;;;1.30;1.20;;;9.60;80.70;;;;;;4991958;28;20109;-75
2020/12/14 07:32:39;;;;;;;1.48;1.23;;;9.60;80.70;;;;;;4991595;28;20050;-78
2020/12/14 07:35:07;;;;;;;1.33;1.23;;;9.60;80.70;;;;;;4992288;28;20105;-76
2020/12/14 07:37:34;;;;;;;1.73;1.20;;;9.60;80.70;;;;;;4992193;28;20031;-78
2020/12/14 07:40:00;;;;;;;1.40;1.30;;;9.60;80.70;;;;;;4992944;28;20041;-77
2020/12/14 07:42:27;;;;;;;1.30;1.20;;;9.60;80.70;;;;;;4991804;28;20042;-76
2020/12/14 07:45:26;;;;;;;1.52;1.40;;;9.60;80.70;;;;;;4975463;28;20027;-75
2020/12/14 07:47:53;;;;;;;1.48;1.30;;;9.70;80.80;;;;;;4959745;28;20141;-77
2020/12/14 07:50:24;;;;;;;1.38;1.27;;;9.60;80.60;;;;;;4991736;28;20501;-77
2020/12/14 07:52:53;;;;;;;1.30;1.20;;;9.60;80.70;;;;;;5008333;28;20066;-76
2020/12/14 07:55:20;;;;;;;1.48;1.30;;;9.60;80.70;;;;;;5008050;28;20478;-78
2020/12/14 07:57:48;;;;;;;1.38;1.27;;;9.60;80.70;;;;;;4991601;28;20034;-76
2020/12/14 08:00:22;;;;;;;1.67;1.40;;;9.60;80.70;;;;;;4988378;28;20026;-76
2020/12/14 08:02:49;;;;;;;2.23;1.50;;;9.60;80.70;;;;;;4974230;28;20043;-77
2020/12/14 08:05:19;;;;;;;1.55;1.30;;;9.70;80.70;;;;;;4976539;28;20022;-77
2020/12/14 08:07:47;;;;;;;1.95;1.30;;;9.70;80.70;;;;;;4976030;28;20213;-77
2020/12/14 08:10:14;;;;;;;1.50;1.40;;;9.70;81.40;;;;;;4977328;28;20056;-80
2020/12/14 08:12:41;;;;;;;2.05;1.50;;;9.70;80.70;;;;;;4976893;28;20043;-77
2020/12/14 08:15:14;;;;;;;1.33;1.23;;;9.70;80.70;;;;;;4995448;28;20026;-77
2020/12/14 08:17:40;;;;;;;1.40;1.30;;;9.70;80.70;;;;;;4995214;28;20023;-76
2020/12/14 08:20:22;;;;;;;1.42;1.33;;;9.70;80.70;;;;;;4978793;28;20168;-76
2020/12/14 08:22:48;;;;;;;2.15;1.30;;;9.70;80.80;;;;;;4994646;28;20077;-76
2020/12/14 08:25:22;;;;;;;1.50;1.40;;;9.70;80.70;;;;;;4994198;28;20362;-75
2020/12/14 08:27:54;;;;;;;1.85;1.20;;;9.70;80.80;;;;;;4994004;28;20161;-77
2020/12/14 08:30:21;;;;;;;1.55;1.45;;;9.70;80.70;;;;;;5010440;28;20030;-76
2020/12/14 08:33:10;;;;;;;1.40;1.30;;;9.70;80.70;;;;;;4994706;28;20030;-76
2020/12/14 08:35:37;;;;;;;1.38;1.27;;;9.70;80.80;;;;;;4991491;28;20479;-76
2020/12/14 08:38:10;;;;;;;1.45;1.35;;;9.70;80.70;;;;;;5003953;28;20019;-76
2020/12/14 08:40:36;;;;;;;1.48;1.38;;;9.70;80.70;;;;;;4977464;28;20022;-76
2020/12/14 08:43:09;;;;;;;1.98;1.80;;;9.70;80.70;;;;;;4993509;28;20053;-76
2020/12/14 08:45:35;;;;;;;1.75;1.42;;;9.70;80.70;;;;;;4990708;28;20495;-76
2020/12/14 08:48:01;;;;;;;1.70;1.60;;;9.70;80.70;;;;;;4991336;28;20035;-77
2020/12/14 08:50:28;;;;;;;1.50;1.40;;;9.80;80.70;;;;;;4991683;28;20729;-77
2020/12/14 08:53:02;;;;;;;1.80;1.70;;;9.80;80.70;;;;;;5010183;28;20490;-77
2020/12/14 08:55:36;;;;;;;1.85;1.40;;;9.80;80.80;;;;;;4993987;28;20092;-76
2020/12/14 08:58:01;;;;;;;1.85;1.40;;;9.80;80.70;;;;;;4992441;28;20112;-77
2020/12/14 09:00:27;;;;;;;2.58;1.75;;;9.80;80.70;;;;;;4993419;28;20057;-77
2020/12/14 09:03:03;;;;;;;1.73;1.50;;;9.80;80.70;;;;;;4994069;28;20034;-77
2020/12/14 09:05:35;;;;;;;2.38;1.70;;;9.80;80.80;;;;;;4989370;28;20395;-76
2020/12/14 09:08:19;;;;;;;1.92;1.23;;;9.80;80.70;;;;;;4992372;28;20022;-76
2020/12/14 09:10:58;;;;;;;1.63;1.27;;;9.80;80.70;;;;;;4991904;28;20027;-77
2020/12/14 09:13:23;;;;;;;1.88;1.40;;;9.80;80.70;;;;;;4983849;28;20030;-76
2020/12/14 09:15:53;;;;;;;1.67;1.40;;;9.80;80.60;;;;;;4991242;28;20031;-78
2020/12/14 09:18:20;;;;;;;1.80;1.58;;;9.80;80.70;;;;;;4993170;28;20045;-79
2020/12/14 09:20:46;;;;;;;1.40;1.30;;;9.90;80.70;;;;;;4992288;28;20022;-78
2020/12/14 09:23:21;;;;;;;1.50;1.40;;;9.90;80.70;;;;;;4992026;28;20042;-79
2020/12/14 09:25:47;;;;;;;1.73;1.45;;;9.90;80.80;;;;;;4992660;28;20049;-81
2020/12/14 09:28:13;;;;;;;1.50;1.40;;;9.90;80.70;;;;;;4994281;28;20030;-77
2020/12/14 09:30:39;;;;;;;1.67;1.58;;;9.90;80.70;;;;;;4976815;28;20672;-79
2020/12/14 09:33:05;;;;;;;1.50;1.40;;;9.90;80.70;;;;;;4991943;28;20501;-77
2020/12/14 09:35:30;;;;;;;1.60;1.50;;;9.90;80.70;;;;;;4992666;28;20027;-78
2020/12/14 09:37:56;;;;;;;1.55;1.40;;;10.00;80.70;;;;;;4991588;28;20026;-81
2020/12/14 09:40:22;;;;;;;1.58;1.48;;;10.00;80.70;;;;;;4992921;28;20378;-77
2020/12/14 09:42:48;;;;;;;1.50;1.40;;;10.00;80.70;;;;;;4976415;28;20038;-81
2020/12/14 09:45:14;;;;;;;1.63;1.52;;;10.00;80.70;;;;;;4992955;28;20429;-78
2020/12/14 09:47:40;;;;;;;1.52;1.42;;;10.00;80.70;;;;;;4992591;28;20035;-78
2020/12/14 09:50:06;;;;;;;1.65;1.55;;;10.10;80.70;;;;;;5008191;28;20145;-78
2020/12/14 09:52:32;;;;;;;1.73;1.40;;;10.00;80.70;;;;;;4992805;28;20493;-77
2020/12/14 09:54:58;;;;;;;1.63;1.52;;;10.10;80.70;;;;;;5008926;28;20047;-77
2020/12/14 09:57:26;;;;;;;1.50;1.38;;;10.10;80.70;;;;;;4976221;28;20450;-77
2020/12/14 09:59:52;;;;;;;1.55;1.45;;;10.10;80.70;;;;;;4992137;28;20117;-79
2020/12/14 10:02:18;;;;;;;1.98;1.50;;;10.10;80.70;;;;;;4977383;28;20125;-74
2020/12/14 10:04:44;;;;;;;1.60;1.50;;;10.10;80.70;;;;;;4992049;28;20038;-75
2020/12/14 10:07:09;;;;;;;1.40;1.30;;;10.20;80.70;;;;;;4991784;28;20027;-78
2020/12/14 10:09:35;;;;;;;2.72;1.52;;;10.20;80.70;;;;;;4992357;28;20463;-75
2020/12/14 10:12:01;;;;;;;1.30;1.20;;;10.20;80.70;;;;;;4959876;28;20035;-78
2020/12/14 10:14:26;;;;;;;1.40;1.30;;;10.20;80.70;;;;;;4992397;28;20045;-78
2020/12/14 10:16:52;;;;;;;1.60;1.50;;;10.20;80.70;;;;;;4975735;28;20040;-78
2020/12/14 10:19:18;;;;;;;1.55;1.45;;;10.20;80.70;;;;;;4991706;28;20038;-78
2020/12/14 10:21:44;;;;;;;1.63;1.50;;;10.20;80.70;;;;;;4992303;28;20042;-78
2020/12/14 10:24:10;;;;;;;1.50;1.30;;;10.30;80.70;;;;;;4991768;28;20550;-78
2020/12/14 10:26:37;;;;;;;1.58;1.48;;;10.30;80.70;;;;;;4992078;28;20038;-75
2020/12/14 10:29:02;;;;;;;1.73;1.40;;;10.30;80.70;;;;;;4975924;28;20097;-76
2020/12/14 10:31:28;;;;;;;1.73;1.25;;;10.30;80.70;;;;;;4975771;28;20035;-76
2020/12/14 10:33:55;;;;;;;1.58;1.40;;;10.40;80.70;;;;;;4991212;28;20026;-79
2020/12/14 10:36:21;;;;;;;1.58;1.48;;;10.40;80.70;;;;;;4985319;28;20030;-77
2020/12/14 10:38:47;;;;;;;1.17;1.10;;;10.40;80.70;;;;;;4992743;28;20029;-75
2020/12/14 10:41:17;;;;;;;1.30;1.20;;;10.40;80.90;;;;;;4975086;28;20031;-77
2020/12/14 10:43:43;;;;;;;1.30;1.20;;;10.40;80.70;;;;;;4975777;28;20057;-78
2020/12/14 10:46:09;;;;;;;1.60;1.50;;;10.50;80.70;;;;;;4974516;28;20208;-77
2020/12/14 10:48:34;;;;;;;1.73;1.33;;;10.50;80.70;;;;;;4990365;28;20597;-79
2020/12/14 10:51:00;;;;;;;1.30;1.20;;;10.50;80.70;;;;;;4990923;28;20084;-77
2020/12/14 10:53:26;;;;;;;1.42;1.25;;;10.50;80.70;;;;;;4991682;28;20065;-78
2020/12/14 10:55:51;;;;;;;1.30;1.20;;;10.60;80.70;;;;;;4989877;28;20165;-79
2020/12/14 10:58:17;;;;;;;1.70;1.30;;;10.50;80.70;;;;;;4974080;28;20034;-81
2020/12/14 11:00:43;;;;;;;1.60;1.50;;;10.60;80.70;;;;;;4989915;28;20034;-75
2020/12/14 11:03:09;;;;;;;1.58;1.30;;;10.60;80.70;;;;;;4974888;28;20045;-76
2020/12/14 11:05:35;;;;;;;1.40;1.30;;;10.60;80.70;;;;;;4990680;28;20034;-75
2020/12/14 11:08:01;;;;;;;1.40;1.30;;;10.60;80.70;;;;;;4976829;28;20037;-75
2020/12/14 11:10:26;;;;;;;1.40;1.30;;;10.70;80.70;;;;;;4975374;28;20031;-78
2020/12/14 11:12:52;;;;;;;1.40;1.30;;;10.70;80.70;;;;;;4991344;28;20382;-78
2020/12/14 11:15:18;;;;;;;1.40;1.30;;;10.70;80.70;;;;;;5007427;28;20077;-78
2020/12/14 11:17:44;;;;;;;1.33;1.23;;;10.80;80.70;;;;;;4968475;28;20023;-79
2020/12/14 11:20:12;;;;;;;1.30;1.20;;;10.80;80.70;;;;;;4989628;28;20124;-79
2020/12/14 11:22:41;;;;;;;1.50;1.30;;;10.80;80.70;;;;;;4991740;28;20054;-78
2020/12/14 11:25:07;;;;;;;1.17;1.10;;;10.80;80.70;;;;;;4990321;28;20521;-78
2020/12/14 11:27:33;;;;;;;1.67;1.35;;;10.80;80.70;;;;;;5006977;28;20061;-78
2020/12/14 11:29:59;;;;;;;1.17;1.08;;;10.90;80.70;;;;;;4990593;28;20046;-78
2020/12/14 11:32:26;;;;;;;1.52;1.30;;;10.90;80.70;;;;;;4991335;28;20046;-78
2020/12/14 11:34:52;;;;;;;1.45;1.27;;;10.90;80.70;;;;;;4991841;28;20023;-83
2020/12/14 11:37:18;;;;;;;1.30;1.20;;;10.90;80.70;;;;;;4990379;28;20034;-80
2020/12/14 11:39:44;;;;;;;1.50;1.33;;;10.90;80.70;;;;;;5006786;28;20394;-78
2020/12/14 11:42:10;;;;;;;1.42;1.33;;;11.00;80.70;;;;;;5007041;28;20564;-78
2020/12/14 11:44:36;;;;;;;1.77;1.33;;;10.90;80.70;;;;;;4974734;28;20031;-76
2020/12/14 11:47:02;;;;;;;1.40;1.08;;;11.00;80.70;;;;;;4974646;28;20058;-77
2020/12/14 11:49:27;;;;;;;1.50;1.27;;;11.00;80.70;;;;;;4990433;28;20027;-78
2020/12/14 11:51:53;;;;;;;1.30;1.20;;;11.00;80.70;;;;;;4990764;28;20057;-79
2020/12/14 11:54:19;;;;;;;1.25;1.15;;;11.10;80.70;;;;;;4990504;28;20042;-80
2020/12/14 11:56:45;;;;;;;1.30;1.20;;;11.10;80.70;;;;;;4991310;28;20030;-78
2020/12/14 11:59:13;;;;;;;1.23;1.13;;;11.10;81.30;;;;;;4974400;28;20031;-78
2020/12/14 12:01:39;;;;;;;1.98;1.30;;;11.10;80.70;;;;;;4990464;28;20035;-79
2020/12/14 12:04:05;;;;;;;1.30;1.20;;;11.10;80.70;;;;;;4990591;28;20093;-80
2020/12/14 12:06:30;;;;;;;1.40;1.30;;;11.20;80.70;;;;;;4990898;28;20434;-79
2020/12/14 12:08:56;;;;;;;1.20;1.13;;;11.20;80.70;;;;;;4990181;28;20578;-80
2020/12/14 12:11:23;;;;;;;1.63;1.48;;;11.20;80.70;;;;;;4990599;28;20053;-78
2020/12/14 12:13:50;;;;;;;1.30;1.20;;;11.20;80.70;;;;;;4992014;28;20037;-78
2020/12/14 12:16:15;;;;;;;1.55;1.30;;;11.20;80.70;;;;;;5002699;28;20027;-79
2020/12/14 12:18:42;;;;;;;1.50;1.40;;;11.20;80.60;;;;;;4990864;28;20177;-80
2020/12/14 12:21:09;;;;;;;1.40;1.30;;;11.20;80.60;;;;;;4990834;28;20049;-79
2020/12/14 12:23:35;;;;;;;1.70;1.40;;;11.20;80.60;;;;;;4990392;28;20038;-78
2020/12/14 12:26:02;;;;;;;1.40;1.30;;;11.30;80.70;;;;;;4958168;28;20056;-79
2020/12/14 12:28:27;;;;;;;1.30;1.20;;;11.30;80.70;;;;;;4989966;28;20030;-79
2020/12/14 12:30:53;;;;;;;1.50;1.40;;;11.30;80.60;;;;;;4990799;28;20042;-79
2020/12/14 12:33:19;;;;;;;1.30;1.20;;;11.30;80.70;;;;;;4974282;28;20069;-74
2020/12/14 12:35:45;;;;;;;2.70;1.40;;;11.30;80.60;;;;;;4990298;28;20034;-74
2020/12/14 12:38:10;;;;;;;1.75;1.30;;;11.30;80.60;;;;;;4989435;28;20026;-75
2020/12/14 12:40:36;;;;;;;1.40;1.30;;;11.30;80.60;;;;;;4989620;28;20027;-75
2020/12/14 12:43:02;;;;;;;1.65;1.40;;;11.40;80.70;;;;;;4990755;28;20038;-75
2020/12/14 12:45:28;;;;;;;1.50;1.40;;;11.40;80.70;;;;;;4990510;28;20026;-75
2020/12/14 12:47:54;;;;;;;1.60;1.50;;;11.40;80.60;;;;;;4990576;28;20037;-76
2020/12/14 12:50:19;;;;;;;1.80;1.40;;;11.50;80.70;;;;;;4976567;28;20114;-76
2020/12/14 12:52:45;;;;;;;1.58;1.35;;;11.50;80.60;;;;;;4993999;28;20038;-76
2020/12/14 12:55:11;;;;;;;2.08;1.50;;;11.50;80.60;;;;;;4993878;28;20382;-76
2020/12/14 12:57:38;;;;;;;1.52;1.40;;;11.50;80.60;;;;;;4992813;28;20061;-75